createdAt,value
2019-03-08T00:01:21.662Z,5.10
2019-03-08T00:03:51.318Z,5.10
2019-03-08T00:06:20.887Z,5.10
2019-03-08T00:08:50.575Z,5.10
2019-03-08T00:11:20.225Z,5.10
2019-03-08T00:13:49.952Z,5.00
2019-03-08T00:16:19.600Z,5.00
2019-03-08T00:18:49.420Z,5.10
2019-03-08T00:21:19.472Z,5.00
2019-03-08T00:23:49.117Z,5.00
2019-03-08T00:26:18.804Z,5.00
2019-03-08T00:28:48.453Z,5.00
2019-03-08T00:31:18.042Z,4.90
2019-03-08T00:33:48.687Z,4.90
2019-03-08T00:36:18.442Z,4.90
2019-03-08T00:38:48.172Z,4.90
2019-03-08T00:41:17.879Z,4.90
2019-03-08T00:43:47.546Z,4.90
2019-03-08T00:46:17.166Z,4.80
2019-03-08T00:48:47.160Z,4.80
2019-03-08T00:51:16.828Z,4.80
2019-03-08T00:53:46.530Z,4.80
2019-03-08T00:56:16.274Z,4.80
2019-03-08T00:58:45.986Z,4.70
2019-03-08T01:01:15.602Z,4.70
2019-03-08T01:03:45.337Z,4.70
2019-03-08T01:06:14.999Z,4.70
2019-03-08T01:08:44.667Z,4.70
2019-03-08T01:11:14.398Z,4.70
2019-03-08T01:13:44.117Z,4.70
2019-03-08T01:16:13.932Z,4.70
2019-03-08T01:18:43.620Z,4.70
2019-03-08T01:21:13.262Z,4.60
2019-03-08T01:23:42.924Z,4.60
2019-03-08T01:26:12.563Z,4.60
2019-03-08T01:28:42.229Z,4.60
2019-03-08T01:31:11.888Z,4.60
2019-03-08T01:33:41.648Z,4.50
2019-03-08T01:36:11.294Z,4.60
2019-03-08T01:38:40.937Z,4.50
2019-03-08T01:41:10.536Z,4.60
2019-03-08T01:43:40.184Z,4.50
2019-03-08T01:46:09.842Z,4.50
2019-03-08T01:48:39.586Z,4.50
2019-03-08T01:51:09.209Z,4.50
2019-03-08T01:53:39.887Z,4.50
2019-03-08T01:56:09.824Z,4.50
2019-03-08T01:58:39.476Z,4.50
2019-03-08T02:01:09.142Z,4.50
2019-03-08T02:03:38.790Z,4.50
2019-03-08T02:06:08.378Z,4.50
2019-03-08T02:08:37.962Z,4.40
2019-03-08T02:11:07.598Z,4.40
2019-03-08T02:13:37.262Z,4.50
2019-03-08T02:16:07.003Z,4.50
2019-03-08T02:18:36.571Z,4.50
2019-03-08T02:21:06.981Z,4.50
2019-03-08T02:23:37.593Z,4.40
2019-03-08T02:26:07.236Z,4.40
2019-03-08T02:28:36.982Z,4.40
2019-03-08T02:31:07.700Z,4.40
2019-03-08T02:33:37.431Z,4.40
2019-03-08T02:36:07.088Z,4.40
2019-03-08T02:38:36.740Z,4.40
2019-03-08T02:41:06.411Z,4.40
2019-03-08T02:43:36.073Z,4.40
2019-03-08T02:46:06.901Z,4.40
2019-03-08T02:48:36.544Z,4.30
2019-03-08T02:51:06.178Z,4.30
2019-03-08T02:53:35.794Z,4.30
2019-03-08T02:56:05.422Z,4.40
2019-03-08T02:58:35.176Z,4.30
2019-03-08T03:01:05.887Z,4.30
2019-03-08T03:03:35.832Z,4.30
2019-03-08T03:06:05.565Z,4.30
2019-03-08T03:08:35.236Z,4.30
2019-03-08T03:11:04.957Z,4.20
2019-03-08T03:13:34.580Z,4.20
2019-03-08T03:16:04.414Z,4.20
2019-03-08T03:18:34.063Z,4.20
2019-03-08T03:21:03.640Z,4.20
2019-03-08T03:23:33.274Z,4.20
2019-03-08T03:26:02.940Z,4.20
2019-03-08T03:28:32.577Z,4.20
2019-03-08T03:31:02.164Z,4.20
2019-03-08T03:33:31.888Z,4.20
2019-03-08T03:36:01.612Z,4.30
2019-03-08T03:38:31.390Z,4.30
2019-03-08T03:41:02.025Z,4.30
2019-03-08T03:43:31.976Z,4.30
2019-03-08T03:46:01.651Z,4.30
2019-03-08T03:48:31.284Z,4.30
2019-03-08T03:51:00.885Z,4.30
2019-03-08T03:53:30.524Z,4.30
2019-03-08T03:56:00.188Z,4.30
2019-03-08T03:58:29.858Z,4.30
2019-03-08T04:01:01.054Z,4.40
2019-03-08T04:03:30.787Z,4.40
2019-03-08T04:06:00.434Z,4.40
2019-03-08T04:08:30.159Z,4.40
2019-03-08T04:10:59.791Z,4.40
2019-03-08T04:13:29.350Z,4.50
2019-03-08T04:15:59.103Z,4.50
2019-03-08T04:18:28.757Z,4.50
2019-03-08T04:20:58.398Z,4.50
2019-03-08T04:23:28.042Z,4.50
2019-03-08T04:25:57.642Z,4.50
2019-03-08T04:28:27.217Z,4.50
2019-03-08T04:30:56.884Z,4.60
2019-03-08T04:33:26.537Z,4.60
2019-03-08T04:35:56.221Z,4.60
2019-03-08T04:38:25.958Z,4.60
2019-03-08T04:40:55.632Z,4.60
2019-03-08T04:43:25.352Z,4.70
2019-03-08T04:45:55.015Z,4.70
2019-03-08T04:48:24.743Z,4.70
2019-03-08T04:50:54.461Z,4.70
2019-03-08T04:53:25.240Z,4.80
2019-03-08T04:55:54.908Z,4.70
2019-03-08T04:58:24.496Z,4.80
2019-03-08T05:00:54.145Z,4.80
2019-03-08T05:03:23.877Z,4.80
2019-03-08T05:05:54.524Z,4.80
2019-03-08T05:08:25.289Z,4.80
2019-03-08T05:10:54.922Z,4.80
2019-03-08T05:13:24.640Z,4.80
2019-03-08T05:15:54.306Z,4.90
2019-03-08T05:18:24.432Z,4.80
2019-03-08T05:20:54.098Z,4.90
2019-03-08T05:23:23.707Z,4.90
2019-03-08T05:25:53.434Z,4.90
2019-03-08T05:28:24.042Z,4.90
2019-03-08T05:30:53.769Z,4.90
2019-03-08T05:33:23.420Z,4.90
2019-03-08T05:35:53.017Z,4.90
2019-03-08T05:38:22.600Z,4.90
2019-03-08T05:40:52.328Z,4.90
2019-03-08T05:43:23.053Z,4.90
2019-03-08T05:45:52.988Z,4.90
2019-03-08T05:48:22.587Z,4.90
2019-03-08T05:50:52.273Z,5.00
2019-03-08T05:53:21.916Z,5.00
2019-03-08T05:55:51.512Z,5.00
2019-03-08T05:58:21.165Z,5.00
2019-03-08T06:00:50.734Z,5.00
2019-03-08T06:03:20.318Z,5.00
2019-03-08T06:05:50.087Z,5.00
2019-03-08T06:08:19.676Z,5.00
2019-03-08T06:10:49.498Z,5.00
2019-03-08T06:13:19.130Z,5.00
2019-03-08T06:15:48.731Z,5.10
2019-03-08T06:18:18.461Z,5.10
2019-03-08T06:20:48.198Z,5.10
2019-03-08T06:23:17.845Z,5.10
2019-03-08T06:25:47.498Z,5.10
2019-03-08T06:28:17.285Z,5.10
2019-03-08T06:30:46.948Z,5.20
2019-03-08T06:33:16.608Z,5.10
2019-03-08T06:35:46.328Z,5.20
2019-03-08T06:38:15.916Z,5.20
2019-03-08T06:40:46.573Z,5.20
2019-03-08T06:43:16.190Z,5.10
2019-03-08T06:45:45.978Z,5.20
2019-03-08T06:48:15.625Z,5.20
2019-03-08T06:50:45.236Z,5.20
2019-03-08T06:53:14.814Z,5.20
2019-03-08T06:55:44.485Z,5.20
2019-03-08T06:58:15.836Z,5.20
2019-03-08T07:00:47.177Z,5.20
2019-03-08T07:03:16.831Z,5.20
2019-03-08T07:05:46.478Z,5.30
2019-03-08T07:08:16.079Z,5.30
2019-03-08T07:10:45.839Z,5.30
2019-03-08T07:13:15.470Z,5.30
2019-03-08T07:15:45.211Z,5.30
2019-03-08T07:18:14.935Z,5.30
2019-03-08T07:20:49.146Z,5.40
2019-03-08T07:23:27.899Z,5.40
2019-03-08T07:26:12.956Z,5.40
2019-03-08T07:29:02.351Z,5.40
2019-03-08T07:31:45.749Z,5.40
2019-03-08T07:34:16.983Z,5.40
2019-03-08T07:36:57.276Z,5.40
2019-03-08T07:39:46.877Z,5.40
2019-03-08T07:42:34.213Z,5.40
2019-03-08T07:45:26.088Z,5.40
2019-03-08T07:47:57.298Z,5.50
2019-03-08T07:50:28.607Z,5.40
2019-03-08T07:53:16.260Z,5.40
2019-03-08T07:55:47.493Z,5.40
2019-03-08T07:58:24.792Z,5.40
2019-03-08T08:01:07.778Z,5.50
2019-03-08T08:03:39.087Z,5.40
2019-03-08T08:06:22.388Z,5.50
2019-03-08T08:08:56.334Z,5.50
2019-03-08T08:11:43.794Z,5.40
2019-03-08T08:14:15.019Z,5.40
2019-03-08T08:17:03.828Z,5.50
2019-03-08T08:19:35.171Z,5.50
2019-03-08T08:22:06.379Z,5.50
2019-03-08T08:24:49.518Z,5.50
2019-03-08T08:27:20.721Z,5.50
2019-03-08T08:30:09.971Z,5.60
2019-03-08T08:32:44.068Z,5.60
2019-03-08T08:35:18.239Z,5.60
2019-03-08T08:38:01.524Z,5.60
2019-03-08T08:40:44.784Z,5.60
2019-03-08T08:43:25.000Z,5.70
2019-03-08T08:46:12.460Z,5.70
2019-03-08T08:48:46.176Z,5.70
2019-03-08T08:51:17.721Z,5.70
2019-03-08T08:53:54.921Z,5.70
2019-03-08T08:56:26.144Z,5.70
2019-03-08T08:58:57.370Z,5.70
2019-03-08T09:01:44.746Z,5.70
2019-03-08T09:04:29.286Z,5.70
2019-03-08T09:07:12.779Z,5.70
2019-03-08T09:09:46.482Z,5.70
2019-03-08T09:12:29.960Z,5.70
2019-03-08T09:15:10.423Z,5.80
2019-03-08T09:17:41.740Z,5.80
2019-03-08T09:20:19.171Z,5.90
2019-03-08T09:23:05.669Z,5.90
2019-03-08T09:25:42.897Z,6.00
2019-03-08T09:28:17.148Z,6.00
2019-03-08T09:30:51.397Z,6.00
2019-03-08T09:33:28.450Z,6.10
2019-03-08T09:39:07.981Z,6.10
2019-03-08T09:41:45.437Z,6.20
2019-03-08T09:44:33.121Z,6.20
2019-03-08T09:47:04.356Z,6.20
2019-03-08T09:49:38.691Z,6.30
2019-03-08T09:52:18.777Z,6.30
2019-03-08T09:54:50.009Z,6.30
2019-03-08T09:57:36.770Z,6.30
2019-03-08T10:00:16.976Z,6.30
2019-03-08T10:02:51.007Z,6.30
2019-03-08T10:05:25.256Z,6.30
2019-03-08T10:08:11.309Z,6.40
2019-03-08T10:10:48.318Z,6.40
2019-03-08T10:13:25.342Z,6.40
2019-03-08T10:15:56.654Z,6.40
2019-03-08T10:18:34.933Z,6.40
2019-03-08T10:21:15.080Z,6.40
2019-03-08T10:23:53.436Z,6.40
2019-03-08T10:26:41.066Z,6.40
2019-03-08T10:29:15.299Z,6.40
2019-03-08T10:31:55.465Z,6.40
2019-03-08T10:34:27.756Z,6.40
2019-03-08T10:37:07.991Z,6.40
2019-03-08T10:39:41.925Z,6.40
2019-03-08T10:42:31.464Z,6.40
2019-03-08T10:45:05.436Z,6.40
2019-03-08T10:47:45.704Z,6.40
2019-03-08T10:50:33.350Z,6.40
2019-03-08T10:53:04.652Z,6.40
2019-03-08T10:55:35.979Z,6.40
2019-03-08T10:58:07.570Z,6.40
2019-03-08T11:00:55.285Z,6.50
2019-03-08T11:03:44.127Z,6.50
2019-03-08T11:06:32.090Z,6.50
2019-03-08T11:09:03.398Z,6.50
2019-03-08T11:11:48.270Z,6.40
2019-03-08T11:14:28.550Z,6.40
2019-03-08T11:16:59.830Z,6.40
2019-03-08T11:19:43.119Z,6.40
2019-03-08T11:22:14.426Z,6.40
2019-03-08T11:24:45.789Z,6.40
2019-03-08T11:27:22.760Z,6.40
2019-03-08T11:30:03.060Z,6.40
2019-03-08T11:32:37.638Z,6.40
2019-03-08T11:35:14.409Z,6.50
2019-03-08T11:37:45.708Z,6.60
2019-03-08T11:40:32.544Z,6.60
2019-03-08T11:43:05.300Z,6.70
2019-03-08T11:45:39.256Z,6.70
2019-03-08T11:48:22.522Z,6.70
2019-03-08T11:50:53.816Z,6.80
2019-03-08T11:53:27.890Z,6.80
2019-03-08T11:56:05.394Z,6.80
2019-03-08T11:58:54.846Z,6.80
2019-03-08T12:01:26.080Z,6.70
2019-03-08T12:04:10.242Z,6.80
2019-03-08T12:06:47.800Z,6.80
2019-03-08T12:09:19.032Z,6.70
2019-03-08T12:11:52.956Z,6.70
2019-03-08T12:14:26.957Z,6.70
2019-03-08T12:16:58.319Z,6.70
2019-03-08T12:19:35.020Z,6.60
2019-03-08T12:22:18.379Z,6.60
2019-03-08T12:24:49.650Z,6.60
2019-03-08T12:27:39.231Z,6.70
2019-03-08T12:30:29.182Z,6.70
2019-03-08T12:33:16.772Z,6.70
2019-03-08T12:35:53.928Z,6.70
2019-03-08T12:38:28.099Z,6.60
2019-03-08T12:41:05.428Z,6.60
2019-03-08T12:43:39.646Z,6.60
2019-03-08T12:46:13.742Z,6.60
2019-03-08T12:48:47.765Z,6.60
2019-03-08T12:51:21.760Z,6.50
2019-03-08T12:53:56.022Z,6.50
2019-03-08T12:56:43.531Z,6.50
2019-03-08T12:59:17.499Z,6.40
2019-03-08T13:01:57.396Z,6.20
2019-03-08T13:04:31.442Z,6.00
2019-03-08T13:07:02.962Z,5.80
2019-03-08T13:09:47.254Z,5.70
2019-03-08T13:12:17.037Z,5.50
2019-03-08T13:14:46.598Z,5.30
2019-03-08T13:17:16.307Z,5.10
2019-03-08T13:19:45.968Z,5.00
2019-03-08T13:22:15.568Z,4.90
2019-03-08T13:24:45.271Z,4.80
2019-03-08T13:27:14.937Z,4.70
2019-03-08T13:29:44.574Z,4.60
2019-03-08T13:32:14.391Z,4.50
2019-03-08T13:34:43.986Z,4.50
2019-03-08T13:37:13.740Z,4.50
2019-03-08T13:39:43.500Z,4.40
2019-03-08T13:42:13.064Z,4.30
2019-03-08T13:44:42.738Z,4.30
2019-03-08T13:47:12.386Z,4.20
2019-03-08T13:49:41.980Z,4.20
2019-03-08T13:52:11.707Z,4.00
2019-03-08T13:54:41.368Z,4.00
2019-03-08T13:57:11.209Z,3.90
2019-03-08T13:59:41.025Z,3.70
2019-03-08T14:02:10.624Z,3.60
2019-03-08T14:04:40.288Z,3.60
2019-03-08T14:07:09.874Z,3.50
2019-03-08T14:09:39.473Z,3.50
2019-03-08T14:12:09.147Z,3.40
2019-03-08T14:14:38.876Z,3.40
2019-03-08T14:17:08.533Z,3.40
2019-03-08T14:19:38.172Z,3.30
2019-03-08T14:22:07.758Z,3.30
2019-03-08T14:24:37.418Z,3.30
2019-03-08T14:27:07.020Z,3.10
2019-03-08T14:29:37.672Z,3.10
2019-03-08T14:32:07.400Z,3.10
2019-03-08T14:34:37.125Z,3.00
2019-03-08T14:37:06.888Z,2.80
2019-03-08T14:39:40.195Z,2.90
2019-03-08T14:42:12.503Z,2.90
2019-03-08T14:44:46.848Z,2.90
2019-03-08T14:47:20.576Z,2.90
2019-03-08T14:49:50.543Z,2.90
2019-03-08T14:52:21.595Z,2.90
2019-03-08T14:54:51.453Z,2.90
2019-03-08T14:57:27.244Z,2.80
2019-03-08T14:59:53.077Z,2.70
2019-03-08T15:02:23.527Z,2.70
2019-03-08T15:04:53.226Z,2.60
2019-03-08T15:07:22.770Z,2.60
2019-03-08T15:09:52.416Z,2.50
2019-03-08T15:12:22.052Z,2.40
2019-03-08T15:14:51.997Z,2.30
2019-03-08T15:17:21.644Z,2.30
2019-03-08T15:19:51.330Z,2.30
2019-03-08T15:22:21.380Z,2.20
2019-03-08T15:24:51.134Z,2.20
2019-03-08T15:27:21.042Z,2.10
2019-03-08T15:29:54.408Z,2.10
2019-03-08T15:32:21.900Z,2.10
2019-03-08T15:34:51.598Z,2.00
2019-03-08T15:37:21.250Z,2.00
2019-03-08T15:39:51.028Z,1.90
2019-03-08T15:42:20.740Z,2.00
2019-03-08T15:44:51.623Z,1.90
2019-03-08T15:47:23.877Z,2.00
2019-03-08T15:49:52.710Z,1.80
2019-03-08T15:52:22.489Z,1.80
2019-03-08T15:54:52.167Z,1.80
2019-03-08T15:57:21.812Z,1.80
2019-03-08T15:59:51.531Z,1.80
2019-03-08T16:02:21.101Z,1.80
2019-03-08T16:04:51.597Z,1.80
2019-03-08T16:07:23.076Z,1.70
2019-03-08T16:09:52.738Z,1.70
2019-03-08T16:12:22.528Z,1.80
2019-03-08T16:14:52.187Z,1.70
2019-03-08T16:17:22.855Z,1.70
2019-03-08T16:19:52.502Z,1.40
2019-03-08T16:22:24.735Z,1.50
2019-03-08T16:24:53.391Z,1.50
2019-03-08T16:27:23.035Z,1.40
2019-03-08T16:29:52.534Z,1.30
2019-03-08T16:32:23.518Z,1.30
2019-03-08T16:34:52.875Z,1.30
2019-03-08T16:37:33.144Z,1.30
2019-03-08T16:40:10.262Z,1.30
2019-03-08T16:42:41.259Z,1.30
2019-03-08T16:45:18.301Z,1.30
2019-03-08T16:48:07.443Z,1.30
2019-03-08T16:50:39.431Z,1.30
2019-03-08T16:53:10.362Z,1.30
2019-03-08T16:55:43.394Z,1.30
2019-03-08T16:58:14.631Z,1.30
2019-03-08T17:00:48.912Z,1.30
2019-03-08T17:03:20.134Z,1.30
2019-03-08T17:05:51.375Z,1.40
2019-03-08T17:08:31.825Z,1.40
2019-03-08T17:11:03.132Z,1.40
2019-03-08T17:13:52.768Z,1.40
2019-03-08T17:16:29.643Z,1.40
2019-03-08T17:19:17.090Z,1.40
2019-03-08T17:21:48.622Z,1.40
2019-03-08T17:24:28.687Z,1.30
2019-03-08T17:27:16.244Z,1.30
2019-03-08T17:29:56.837Z,1.30
2019-03-08T17:32:28.146Z,1.30
2019-03-08T17:35:08.623Z,1.30
2019-03-08T17:37:43.086Z,1.30
2019-03-08T17:40:30.424Z,1.20
2019-03-08T17:43:01.796Z,1.30
2019-03-08T17:45:42.083Z,1.20
2019-03-08T17:48:16.106Z,1.20
2019-03-08T17:50:56.155Z,1.20
2019-03-08T17:53:27.420Z,1.20
2019-03-08T17:56:10.836Z,1.20
2019-03-08T17:58:58.273Z,1.10
2019-03-08T18:01:47.637Z,1.10
2019-03-08T18:04:18.970Z,1.10
2019-03-08T18:06:53.331Z,1.10
2019-03-08T18:09:39.620Z,1.10
2019-03-08T18:12:26.021Z,1.10
2019-03-08T18:15:12.059Z,1.10
2019-03-08T18:17:58.738Z,1.10
2019-03-08T18:20:29.982Z,1.00
2019-03-08T18:23:01.479Z,1.10
2019-03-08T18:25:32.766Z,1.10
2019-03-08T18:28:09.814Z,1.00
2019-03-08T18:30:41.042Z,1.10
2019-03-08T18:33:15.252Z,1.10
2019-03-08T18:35:49.359Z,1.10
2019-03-08T18:38:26.938Z,1.10
2019-03-08T18:40:58.259Z,1.10
2019-03-08T18:43:44.281Z,1.20
2019-03-08T18:46:24.549Z,1.20
2019-03-08T18:48:56.876Z,1.20
2019-03-08T18:51:46.194Z,1.20
2019-03-08T18:57:08.813Z,1.30
2019-03-08T18:59:42.998Z,1.30
2019-03-08T19:02:20.462Z,1.40
2019-03-08T19:04:54.954Z,1.40
2019-03-08T19:07:26.315Z,1.40
2019-03-08T19:10:14.058Z,1.40
2019-03-08T19:12:48.494Z,1.50
2019-03-08T19:15:19.828Z,1.50
2019-03-08T19:18:08.038Z,1.50
2019-03-08T19:20:49.911Z,1.60
2019-03-08T19:23:21.198Z,1.60
2019-03-08T19:25:52.504Z,1.60
2019-03-08T19:28:26.766Z,1.60
2019-03-08T19:30:58.107Z,1.70
2019-03-08T19:33:29.422Z,1.70
2019-03-08T19:36:00.717Z,1.70
2019-03-08T19:38:31.928Z,1.70
2019-03-08T19:41:03.485Z,1.80
2019-03-08T19:43:50.968Z,1.80
2019-03-08T19:46:22.275Z,1.80
2019-03-08T19:49:10.192Z,1.90
2019-03-08T19:51:42.524Z,1.90
2019-03-08T19:54:16.794Z,1.80
2019-03-08T19:56:51.082Z,1.80
2019-03-08T19:59:34.808Z,1.80
2019-03-08T20:02:15.168Z,1.80
2019-03-08T20:05:03.201Z,1.90
2019-03-08T20:07:34.837Z,1.80
2019-03-08T20:10:17.657Z,1.80
2019-03-08T20:12:51.658Z,1.80
2019-03-08T20:15:29.010Z,1.80
2019-03-08T20:18:15.566Z,1.80
2019-03-08T20:20:47.026Z,1.80
2019-03-08T20:23:34.778Z,1.80
2019-03-08T20:26:09.001Z,1.80
2019-03-08T20:28:47.480Z,1.80
2019-03-08T20:31:21.709Z,1.80
2019-03-08T20:33:53.031Z,1.80
2019-03-08T20:36:27.307Z,1.70
2019-03-08T20:39:07.420Z,1.80
2019-03-08T20:41:40.283Z,1.80
2019-03-08T20:44:14.484Z,1.80
2019-03-08T20:46:45.787Z,1.80
2019-03-08T20:49:15.517Z,1.80
2019-03-08T20:51:45.233Z,1.80
2019-03-08T20:54:14.913Z,1.80
2019-03-08T20:56:44.622Z,1.80
2019-03-08T20:59:14.352Z,1.80
2019-03-08T21:01:44.008Z,1.80
2019-03-08T21:04:13.666Z,1.70
2019-03-08T21:06:43.360Z,1.70
2019-03-08T21:09:13.690Z,1.70
2019-03-08T21:11:43.452Z,1.70
2019-03-08T21:14:13.227Z,1.70
2019-03-08T21:16:42.887Z,1.70
2019-03-08T21:19:12.611Z,1.70
2019-03-08T21:21:42.288Z,1.70
2019-03-08T21:24:11.953Z,1.70
2019-03-08T21:26:41.636Z,1.70
2019-03-08T21:29:11.270Z,1.70
2019-03-08T21:31:40.922Z,1.60
2019-03-08T21:34:10.550Z,1.60
2019-03-08T21:36:40.324Z,1.60
2019-03-08T21:39:10.159Z,1.60
2019-03-08T21:41:39.907Z,1.60
2019-03-08T21:44:09.511Z,1.60
2019-03-08T21:46:39.154Z,1.60
2019-03-08T21:49:08.941Z,1.50
2019-03-08T21:51:38.592Z,1.50
2019-03-08T21:54:08.315Z,1.50
2019-03-08T21:56:37.972Z,1.50
2019-03-08T21:59:07.629Z,1.50
2019-03-08T22:01:37.449Z,1.40
2019-03-08T22:04:08.730Z,1.40
2019-03-08T22:06:38.370Z,1.40
2019-03-08T22:09:15.596Z,1.40
2019-03-08T22:11:45.717Z,1.40
2019-03-08T22:14:15.364Z,1.40
2019-03-08T22:16:45.074Z,1.40
2019-03-08T22:19:14.746Z,1.30
2019-03-08T22:21:44.410Z,1.30
2019-03-08T22:24:14.466Z,1.30
2019-03-08T22:26:44.122Z,1.30
2019-03-08T22:29:13.851Z,1.30
2019-03-08T22:31:43.570Z,1.30
2019-03-08T22:34:13.278Z,1.30
2019-03-08T22:36:44.125Z,1.30
2019-03-08T22:39:13.827Z,1.20
2019-03-08T22:41:43.471Z,1.20
2019-03-08T22:44:13.068Z,1.20
2019-03-08T22:46:45.428Z,1.20
2019-03-08T22:49:14.136Z,1.20
2019-03-08T22:51:43.812Z,1.10
2019-03-08T22:54:13.549Z,1.10
2019-03-08T22:56:43.198Z,1.10
2019-03-08T22:59:12.856Z,1.10
2019-03-08T23:01:50.412Z,1.10
2019-03-08T23:04:20.078Z,1.00
2019-03-08T23:06:49.724Z,1.00
2019-03-08T23:09:19.664Z,1.00
2019-03-08T23:11:49.680Z,1.00
2019-03-08T23:14:19.259Z,1.00
2019-03-08T23:16:48.840Z,1.00
2019-03-08T23:19:18.500Z,1.00
2019-03-08T23:21:48.162Z,1.00
2019-03-08T23:24:18.986Z,1.00
2019-03-08T23:27:06.750Z,1.00
2019-03-08T23:29:40.740Z,1.00
2019-03-08T23:32:14.729Z,1.00
2019-03-08T23:34:45.466Z,1.00
2019-03-08T23:37:15.122Z,1.00
2019-03-08T23:39:44.783Z,1.00
2019-03-08T23:42:14.506Z,1.00
2019-03-08T23:44:44.454Z,1.00
2019-03-08T23:47:14.052Z,1.00
2019-03-08T23:49:55.707Z,1.00
2019-03-08T23:52:25.379Z,1.00
2019-03-08T23:54:55.024Z,1.00
2019-03-08T23:57:24.662Z,1.00
2019-03-08T23:59:54.248Z,1.00
